Time;durP1;ratioP1;P1;durP2;ratioP2;P2;SDS_P1;SDS_P2;PMS_P1;PMS_P2;Temp;Humidity;BMP_temperature;BMP_pressure;BME280_temperature;BME280_humidity;BME280_pressure;Samples;Min_cycle;Max_cycle;Signal;HPM_P1;HPM_P2
2021/01/19 00:00:07;;;;;;;7.57;6.35;;;8.10;80.10;;;;;;4923709;28;20479;-76
2021/01/19 00:02:38;;;;;;;7.85;7.05;;;8.20;80.20;;;;;;4972673;28;20035;-77
2021/01/19 00:05:04;;;;;;;8.43;6.68;;;8.20;80.10;;;;;;4917744;29;20051;-77
2021/01/19 00:07:30;;;;;;;9.23;6.93;;;8.20;80.20;;;;;;4933097;29;20031;-76
2021/01/19 00:09:56;;;;;;;8.25;6.80;;;8.20;80.10;;;;;;4917509;29;20105;-76
2021/01/19 00:12:22;;;;;;;8.95;6.68;;;8.10;80.10;;;;;;4948282;29;20123;-77
2021/01/19 00:14:48;;;;;;;7.30;6.10;;;8.20;80.20;;;;;;4943358;29;20119;-76
2021/01/19 00:17:14;;;;;;;7.40;6.55;;;8.20;80.20;;;;;;4917556;29;20417;-76
2021/01/19 00:19:40;;;;;;;8.55;6.18;;;8.10;80.10;;;;;;4932414;29;20030;-78
2021/01/19 00:22:05;;;;;;;8.48;6.30;;;8.20;80.10;;;;;;4930853;29;20038;-76
2021/01/19 00:24:31;;;;;;;7.75;6.18;;;8.20;80.20;;;;;;4917441;29;20480;-77
2021/01/19 00:26:57;;;;;;;8.38;6.55;;;8.20;80.20;;;;;;4948722;29;20020;-76
2021/01/19 00:29:23;;;;;;;7.28;6.45;;;8.20;80.20;;;;;;4933402;29;20499;-76
2021/01/19 00:31:48;;;;;;;9.80;6.65;;;8.20;80.20;;;;;;4917408;29;20601;-77
2021/01/19 00:34:16;;;;;;;7.97;6.10;;;8.20;80.20;;;;;;4922486;29;20420;-76
2021/01/19 00:36:41;;;;;;;8.35;6.15;;;8.20;80.20;;;;;;4939170;29;20370;-76
2021/01/19 00:39:08;;;;;;;8.02;5.72;;;8.20;80.20;;;;;;4923778;29;20119;-77
2021/01/19 00:41:34;;;;;;;7.05;5.20;;;8.20;80.20;;;;;;4939151;29;20077;-76
2021/01/19 00:44:00;;;;;;;7.88;6.07;;;8.20;80.10;;;;;;4939479;29;20055;-78
2021/01/19 00:46:26;;;;;;;7.43;6.07;;;8.20;80.20;;;;;;4923030;29;20043;-76
2021/01/19 00:48:52;;;;;;;6.70;5.07;;;8.20;80.20;;;;;;4939389;29;20032;-77
2021/01/19 00:51:19;;;;;;;7.75;5.75;;;8.20;80.20;;;;;;4925199;29;20036;-77
2021/01/19 00:53:45;;;;;;;6.97;5.82;;;8.20;80.20;;;;;;4939236;29;20050;-77
2021/01/19 00:56:11;;;;;;;7.03;5.60;;;8.20;80.10;;;;;;4955295;28;20027;-76
2021/01/19 00:58:37;;;;;;;7.47;5.32;;;8.20;80.20;;;;;;4955578;29;20432;-77
2021/01/19 01:01:03;;;;;;;6.75;5.05;;;8.20;80.10;;;;;;4920004;29;20047;-76
2021/01/19 01:03:33;;;;;;;7.07;5.43;;;8.20;80.20;;;;;;4933296;29;20031;-76
2021/01/19 01:06:00;;;;;;;7.60;4.78;;;8.20;80.20;;;;;;4907297;29;20079;-76
2021/01/19 01:08:25;;;;;;;5.95;4.57;;;8.20;80.20;;;;;;4932062;29;20039;-76
2021/01/19 01:10:52;;;;;;;7.70;4.20;;;8.20;80.20;;;;;;4938444;29;20039;-77
2021/01/19 01:13:20;;;;;;;6.45;4.30;;;8.20;80.20;;;;;;4940343;29;20028;-76
2021/01/19 01:15:46;;;;;;;5.82;4.28;;;8.20;80.20;;;;;;4939543;29;20587;-76
2021/01/19 01:18:13;;;;;;;6.35;4.15;;;8.20;80.20;;;;;;4938839;29;20049;-76
2021/01/19 01:20:41;;;;;;;7.25;4.53;;;8.20;80.20;;;;;;4920411;29;20047;-76
2021/01/19 01:23:07;;;;;;;6.10;4.40;;;8.30;80.20;;;;;;4938234;29;20174;-76
2021/01/19 01:25:33;;;;;;;6.32;4.22;;;8.20;80.20;;;;;;4923326;29;20031;-77
2021/01/19 01:27:59;;;;;;;5.63;4.10;;;8.20;80.20;;;;;;4907280;29;20051;-77
2021/01/19 01:30:25;;;;;;;4.65;3.50;;;8.20;80.20;;;;;;4925884;29;20039;-77
2021/01/19 01:32:51;;;;;;;5.30;3.85;;;8.20;80.40;;;;;;4938271;29;20051;-75
2021/01/19 01:35:19;;;;;;;6.15;3.80;;;8.20;80.20;;;;;;4923471;29;20027;-76
2021/01/19 01:37:46;;;;;;;5.93;3.40;;;8.30;80.20;;;;;;4938691;29;20574;-78
2021/01/19 01:40:15;;;;;;;5.32;3.63;;;8.20;80.20;;;;;;4922945;29;20118;-77
2021/01/19 01:42:41;;;;;;;6.50;3.58;;;8.20;80.20;;;;;;4908282;29;20028;-76
2021/01/19 01:45:07;;;;;;;4.68;3.17;;;8.20;80.10;;;;;;4903122;29;20130;-76
2021/01/19 01:47:33;;;;;;;5.65;3.67;;;8.20;80.10;;;;;;4928813;29;20028;-76
2021/01/19 01:49:59;;;;;;;5.37;3.07;;;8.20;80.10;;;;;;4919722;29;20039;-76
2021/01/19 01:52:28;;;;;;;5.03;2.85;;;8.20;80.80;;;;;;4920127;29;20048;-76
2021/01/19 01:54:54;;;;;;;4.75;3.40;;;8.20;80.20;;;;;;4919854;29;20115;-76
2021/01/19 01:57:20;;;;;;;6.30;3.63;;;8.20;80.10;;;;;;4935920;29;20051;-76
2021/01/19 01:59:58;;;;;;;5.82;3.00;;;8.20;80.10;;;;;;4935797;29;20086;-76
2021/01/19 02:02:24;;;;;;;4.78;3.30;;;8.20;80.20;;;;;;4935812;29;20038;-76
2021/01/19 02:04:50;;;;;;;5.07;3.20;;;8.20;80.10;;;;;;4948177;28;20051;-76
2021/01/19 02:07:28;;;;;;;4.63;3.05;;;8.20;80.10;;;;;;4941843;28;20062;-76
2021/01/19 02:10:22;;;;;;;4.53;2.63;;;8.20;80.20;;;;;;4957670;28;20126;-76
2021/01/19 02:12:57;;;;;;;4.40;3.13;;;8.20;80.30;;;;;;4932191;28;20130;-78
2021/01/19 02:15:34;;;;;;;4.30;3.00;;;8.20;80.20;;;;;;4975228;28;20035;-76
2021/01/19 02:18:26;;;;;;;4.10;2.65;;;8.20;80.10;;;;;;4944028;28;20027;-76
2021/01/19 02:20:58;;;;;;;5.05;2.70;;;8.20;80.20;;;;;;4940726;28;20352;-76
2021/01/19 02:23:38;;;;;;;3.58;2.50;;;8.20;80.10;;;;;;4974404;28;20126;-77
2021/01/19 02:26:23;;;;;;;3.83;2.63;;;8.20;80.20;;;;;;4941547;28;20030;-76
2021/01/19 02:28:55;;;;;;;4.82;2.63;;;8.10;80.20;;;;;;4957348;28;20065;-76
2021/01/19 02:31:55;;;;;;;3.72;2.50;;;8.20;80.20;;;;;;4940908;28;20424;-76
2021/01/19 02:34:59;;;;;;;4.07;2.70;;;8.10;80.30;;;;;;4948364;28;20476;-76
2021/01/19 02:37:30;;;;;;;3.67;2.47;;;8.10;80.20;;;;;;4931618;28;20038;-76
2021/01/19 02:40:05;;;;;;;5.80;2.47;;;8.20;80.20;;;;;;4973787;28;20122;-77
2021/01/19 02:42:43;;;;;;;2.95;2.28;;;8.10;80.30;;;;;;4974607;28;20030;-76
2021/01/19 02:45:10;;;;;;;3.90;2.30;;;8.10;80.80;;;;;;4974200;28;20031;-76
2021/01/19 02:47:40;;;;;;;3.38;2.40;;;8.20;80.20;;;;;;4941621;28;20093;-77
2021/01/19 02:50:10;;;;;;;4.20;2.70;;;8.20;80.20;;;;;;4953197;28;20167;-76
2021/01/19 02:52:37;;;;;;;4.13;2.58;;;8.20;80.30;;;;;;4928994;28;20122;-76
2021/01/19 02:55:04;;;;;;;2.38;2.03;;;8.10;80.20;;;;;;4957091;28;20097;-77
2021/01/19 02:57:46;;;;;;;4.53;2.05;;;8.10;80.20;;;;;;4956132;28;20031;-76
2021/01/19 03:00:22;;;;;;;2.85;2.00;;;8.20;80.20;;;;;;4956776;28;20039;-76
2021/01/19 03:02:51;;;;;;;3.30;2.35;;;8.10;80.20;;;;;;4938355;29;20023;-76
2021/01/19 03:05:17;;;;;;;2.95;2.17;;;8.10;80.10;;;;;;4922738;29;20062;-77
2021/01/19 03:07:45;;;;;;;4.30;2.40;;;8.10;80.10;;;;;;4919141;29;20028;-76
2021/01/19 03:10:16;;;;;;;3.80;2.30;;;8.10;80.10;;;;;;4903082;29;20481;-76
2021/01/19 03:12:44;;;;;;;3.75;2.10;;;8.20;80.20;;;;;;4918605;29;20024;-77
2021/01/19 03:15:11;;;;;;;3.35;2.15;;;8.10;80.10;;;;;;4931783;29;20307;-76
2021/01/19 03:17:39;;;;;;;3.33;2.30;;;8.10;80.10;;;;;;4921698;29;20038;-76
2021/01/19 03:20:06;;;;;;;3.03;2.08;;;8.20;80.20;;;;;;4917917;29;20039;-76
2021/01/19 03:22:32;;;;;;;3.33;2.08;;;8.10;80.10;;;;;;4932872;29;20074;-76
2021/01/19 03:24:58;;;;;;;3.40;2.28;;;8.20;80.20;;;;;;4914718;29;20047;-77
2021/01/19 03:27:24;;;;;;;3.35;2.00;;;8.10;80.10;;;;;;4924717;29;20126;-77
2021/01/19 03:29:50;;;;;;;2.92;2.00;;;8.10;80.10;;;;;;4902038;29;20123;-76
2021/01/19 03:32:16;;;;;;;4.35;2.28;;;8.20;80.20;;;;;;4917131;29;20170;-76
2021/01/19 03:34:41;;;;;;;3.13;2.20;;;8.20;80.10;;;;;;4908256;29;20127;-76
2021/01/19 03:37:07;;;;;;;3.83;2.20;;;8.10;80.10;;;;;;4933393;29;20035;-76
2021/01/19 03:39:33;;;;;;;3.17;2.13;;;8.20;80.20;;;;;;4933973;29;20036;-76
2021/01/19 03:41:59;;;;;;;3.38;2.10;;;8.10;80.10;;;;;;4916730;29;20059;-78
2021/01/19 03:44:25;;;;;;;4.50;2.10;;;8.10;80.10;;;;;;4934760;29;20058;-75
2021/01/19 03:46:51;;;;;;;5.18;2.40;;;8.10;80.10;;;;;;4917823;29;20028;-76
2021/01/19 03:49:16;;;;;;;3.28;2.33;;;8.10;80.10;;;;;;4917516;29;20532;-76
2021/01/19 03:51:42;;;;;;;5.40;2.35;;;8.10;80.10;;;;;;4933779;29;20028;-76
2021/01/19 03:54:08;;;;;;;3.70;2.30;;;8.10;80.10;;;;;;4916091;29;20032;-76
2021/01/19 03:56:34;;;;;;;4.80;2.53;;;8.10;80.10;;;;;;4902315;29;20031;-75
2021/01/19 03:59:00;;;;;;;3.67;2.47;;;8.10;80.10;;;;;;4902431;29;20087;-76
2021/01/19 04:01:25;;;;;;;4.15;2.40;;;8.10;80.10;;;;;;4917224;29;20492;-76
2021/01/19 04:03:51;;;;;;;3.85;2.50;;;8.10;80.10;;;;;;4918063;29;20066;-76
2021/01/19 04:06:17;;;;;;;4.10;2.90;;;8.10;80.10;;;;;;4936418;28;20050;-76
2021/01/19 04:08:43;;;;;;;4.90;2.38;;;8.10;80.10;;;;;;4939909;28;20034;-77
2021/01/19 04:11:08;;;;;;;3.45;2.50;;;8.10;80.10;;;;;;4939018;28;20031;-76
2021/01/19 04:13:35;;;;;;;3.58;2.25;;;8.10;80.10;;;;;;4936741;29;20043;-75
2021/01/19 04:16:01;;;;;;;3.53;2.35;;;8.10;80.10;;;;;;4949101;28;20058;-75
2021/01/19 04:18:27;;;;;;;2.65;2.15;;;8.10;80.70;;;;;;4971302;28;20089;-76
2021/01/19 04:20:53;;;;;;;3.55;2.25;;;8.10;80.10;;;;;;4955766;28;20483;-76
2021/01/19 04:23:19;;;;;;;4.10;2.40;;;8.10;80.10;;;;;;4936751;29;20040;-75
2021/01/19 04:25:47;;;;;;;3.60;2.40;;;8.10;80.10;;;;;;4935955;28;20131;-76
2021/01/19 04:28:13;;;;;;;3.95;2.70;;;8.10;80.10;;;;;;4955450;28;20031;-76
2021/01/19 04:30:42;;;;;;;3.97;2.63;;;8.10;80.10;;;;;;4937328;28;20134;-76
2021/01/19 04:33:09;;;;;;;3.83;2.70;;;8.00;80.10;;;;;;4939506;28;20027;-76
2021/01/19 04:35:35;;;;;;;4.53;2.45;;;8.10;80.10;;;;;;4923643;28;20479;-75
2021/01/19 04:38:00;;;;;;;4.78;2.70;;;8.00;80.10;;;;;;4936094;29;20030;-76
2021/01/19 04:40:26;;;;;;;3.47;2.60;;;8.10;80.10;;;;;;4970434;28;20088;-76
2021/01/19 04:42:53;;;;;;;4.43;2.60;;;8.10;80.10;;;;;;4939723;28;20049;-77
2021/01/19 04:45:19;;;;;;;3.15;2.60;;;8.10;80.10;;;;;;4907220;28;21605;-76
2021/01/19 04:47:44;;;;;;;4.25;2.70;;;8.10;80.10;;;;;;4939979;28;20073;-75
2021/01/19 04:50:12;;;;;;;3.75;2.70;;;8.10;80.10;;;;;;4939057;28;20411;-77
2021/01/19 04:52:40;;;;;;;4.05;2.70;;;8.10;80.10;;;;;;4936431;29;20027;-76
2021/01/19 04:55:19;;;;;;;3.95;2.60;;;8.10;80.10;;;;;;4951136;28;20065;-76
2021/01/19 04:57:56;;;;;;;4.57;2.60;;;8.00;80.10;;;;;;4955382;28;20537;-76
2021/01/19 05:00:35;;;;;;;3.65;2.80;;;8.10;80.10;;;;;;4972034;28;20119;-77
2021/01/19 05:03:20;;;;;;;5.22;2.90;;;8.10;80.10;;;;;;4942620;28;20081;-76
2021/01/19 05:06:13;;;;;;;3.70;2.47;;;8.00;80.10;;;;;;4933293;29;20436;-76
2021/01/19 05:08:42;;;;;;;2.90;2.55;;;8.00;80.10;;;;;;4945624;29;20083;-76
2021/01/19 05:11:20;;;;;;;4.28;2.70;;;8.00;80.00;;;;;;4931022;29;20032;-77
2021/01/19 05:13:46;;;;;;;4.07;2.50;;;8.00;80.10;;;;;;4934163;29;20044;-75
2021/01/19 05:16:18;;;;;;;3.70;2.60;;;8.00;80.10;;;;;;4934258;29;20032;-78
2021/01/19 05:18:45;;;;;;;4.18;2.53;;;8.00;80.10;;;;;;4918969;29;20027;-76
2021/01/19 05:21:11;;;;;;;3.35;2.65;;;8.00;80.10;;;;;;4927185;29;20444;-77
2021/01/19 05:23:37;;;;;;;4.55;2.80;;;8.00;80.10;;;;;;4932444;29;20032;-76
2021/01/19 05:26:06;;;;;;;5.10;2.72;;;8.00;80.10;;;;;;4932211;29;20413;-76
2021/01/19 05:28:37;;;;;;;4.07;2.67;;;8.00;80.10;;;;;;4940850;29;20172;-76
2021/01/19 05:31:15;;;;;;;3.35;2.53;;;8.00;80.10;;;;;;4921774;29;20036;-76
2021/01/19 05:33:54;;;;;;;3.35;2.75;;;8.00;80.10;;;;;;4919632;29;20118;-76
2021/01/19 05:36:21;;;;;;;4.20;2.67;;;8.00;80.10;;;;;;4936570;29;20055;-76
2021/01/19 05:38:48;;;;;;;4.10;2.95;;;8.00;80.10;;;;;;4943872;29;20027;-77
2021/01/19 05:41:48;;;;;;;3.22;2.60;;;8.00;80.10;;;;;;4929969;29;20126;-77
2021/01/19 05:44:21;;;;;;;3.80;2.78;;;8.00;80.20;;;;;;4942710;29;20034;-76
2021/01/19 05:46:51;;;;;;;3.53;2.40;;;8.00;80.10;;;;;;4941746;29;20032;-76
2021/01/19 05:49:22;;;;;;;4.32;2.60;;;8.00;80.10;;;;;;4956370;28;20027;-77
2021/01/19 05:51:50;;;;;;;3.55;2.35;;;8.00;80.20;;;;;;4942568;28;20477;-76
2021/01/19 05:54:33;;;;;;;3.50;2.38;;;8.00;80.10;;;;;;4948636;29;20036;-77
2021/01/19 05:57:04;;;;;;;3.47;2.50;;;8.00;80.20;;;;;;4922913;29;20362;-76
2021/01/19 05:59:35;;;;;;;3.78;2.47;;;8.00;80.20;;;;;;4924895;29;20123;-76
2021/01/19 06:02:03;;;;;;;3.10;2.33;;;8.00;80.20;;;;;;4933765;29;20082;-75
2021/01/19 06:04:32;;;;;;;2.83;2.20;;;8.00;80.10;;;;;;4925365;28;20031;-76
2021/01/19 06:06:59;;;;;;;3.72;2.50;;;8.00;80.20;;;;;;4968705;28;20384;-77
2021/01/19 06:09:25;;;;;;;3.05;2.40;;;8.00;80.20;;;;;;4941250;28;20031;-75
2021/01/19 06:11:52;;;;;;;3.53;2.47;;;8.00;80.10;;;;;;4974537;28;20479;-76
2021/01/19 06:14:28;;;;;;;2.67;2.17;;;8.00;80.20;;;;;;4955355;28;20031;-76
2021/01/19 06:17:21;;;;;;;3.05;2.30;;;8.00;80.20;;;;;;4939860;28;20125;-76
2021/01/19 06:19:51;;;;;;;2.78;2.22;;;8.00;80.30;;;;;;4974450;28;20027;-76
2021/01/19 06:22:20;;;;;;;2.97;2.40;;;8.00;80.10;;;;;;4922509;28;20038;-78
2021/01/19 06:24:47;;;;;;;3.00;2.30;;;8.00;80.20;;;;;;4957994;28;20029;-76
2021/01/19 06:27:34;;;;;;;2.92;2.40;;;8.00;80.10;;;;;;4941454;28;20030;-77
2021/01/19 06:29:59;;;;;;;3.10;2.40;;;8.00;80.30;;;;;;4957697;28;20058;-76
2021/01/19 06:32:31;;;;;;;2.58;2.10;;;8.00;80.10;;;;;;4957620;28;20027;-76
2021/01/19 06:35:08;;;;;;;2.38;2.10;;;8.00;80.20;;;;;;4957318;28;20066;-76
2021/01/19 06:37:34;;;;;;;2.42;2.10;;;8.00;80.20;;;;;;4937828;29;20389;-76
2021/01/19 06:40:03;;;;;;;2.58;2.20;;;8.00;80.20;;;;;;4935509;28;20471;-76
2021/01/19 06:42:31;;;;;;;3.20;2.10;;;8.00;80.20;;;;;;4940282;28;20065;-75
2021/01/19 06:44:59;;;;;;;3.13;2.17;;;8.00;80.20;;;;;;4974339;28;20383;-77
2021/01/19 06:47:25;;;;;;;3.17;2.40;;;8.00;80.20;;;;;;4941272;28;20023;-77
2021/01/19 06:49:53;;;;;;;3.00;2.00;;;8.00;80.20;;;;;;4926011;28;20050;-76
2021/01/19 06:52:20;;;;;;;2.78;2.20;;;8.00;80.20;;;;;;4938099;29;20478;-76
2021/01/19 06:54:52;;;;;;;3.42;2.30;;;8.00;80.20;;;;;;4937689;29;20102;-76
2021/01/19 06:57:52;;;;;;;2.60;2.10;;;8.00;80.20;;;;;;4972035;28;20088;-76
2021/01/19 07:00:21;;;;;;;2.25;2.05;;;8.00;80.40;;;;;;4957198;28;20399;-77
2021/01/19 07:02:53;;;;;;;3.45;2.20;;;8.00;80.10;;;;;;4966805;28;20395;-76
2021/01/19 07:05:20;;;;;;;2.70;1.85;;;8.00;80.20;;;;;;4941178;28;20101;-77
2021/01/19 07:07:48;;;;;;;2.53;2.20;;;8.00;80.20;;;;;;4956514;28;20027;-76
2021/01/19 07:10:24;;;;;;;3.15;2.10;;;8.00;80.20;;;;;;4941183;28;20035;-77
2021/01/19 07:13:04;;;;;;;2.33;2.03;;;8.00;80.30;;;;;;4974301;28;20039;-76
2021/01/19 07:15:55;;;;;;;2.53;2.17;;;8.00;80.30;;;;;;4922336;29;20086;-74
2021/01/19 07:18:42;;;;;;;2.58;2.03;;;8.00;80.40;;;;;;4946009;28;20035;-74
2021/01/19 07:21:16;;;;;;;2.42;2.05;;;8.00;80.20;;;;;;4956803;28;20030;-74
2021/01/19 07:23:45;;;;;;;1.92;1.83;;;8.00;80.20;;;;;;4940478;28;20126;-73
2021/01/19 07:26:19;;;;;;;2.08;1.88;;;8.00;80.20;;;;;;4956247;28;20070;-73
2021/01/19 07:28:46;;;;;;;2.38;1.88;;;8.00;80.30;;;;;;4956052;28;20041;-73
2021/01/19 07:31:18;;;;;;;2.20;2.00;;;8.00;80.20;;;;;;4940393;28;20039;-73
2021/01/19 07:33:48;;;;;;;2.33;1.90;;;8.00;80.30;;;;;;4955678;28;20030;-74
2021/01/19 07:36:18;;;;;;;2.60;1.95;;;8.00;80.50;;;;;;4956680;28;20043;-74
2021/01/19 07:38:44;;;;;;;2.35;2.15;;;8.00;80.20;;;;;;4944666;28;20035;-74
2021/01/19 07:41:10;;;;;;;2.15;1.88;;;8.00;80.20;;;;;;4974131;28;20037;-73
2021/01/19 07:43:37;;;;;;;2.30;2.10;;;8.00;80.20;;;;;;4972485;28;20584;-75
2021/01/19 07:46:04;;;;;;;2.58;2.00;;;8.00;80.20;;;;;;4956566;28;20089;-75
2021/01/19 07:48:35;;;;;;;1.80;1.70;;;8.00;80.20;;;;;;4955808;28;20467;-76
2021/01/19 07:51:17;;;;;;;2.30;2.00;;;8.00;80.30;;;;;;4940642;28;20065;-74
2021/01/19 07:53:54;;;;;;;2.22;2.03;;;8.00;80.40;;;;;;4940164;28;20138;-75
2021/01/19 07:56:30;;;;;;;2.67;1.90;;;8.10;80.30;;;;;;4940573;28;20045;-74
2021/01/19 07:58:57;;;;;;;2.00;1.80;;;8.00;80.30;;;;;;4973368;28;20038;-74
2021/01/19 08:01:24;;;;;;;2.35;1.90;;;8.10;80.40;;;;;;4955958;28;20030;-75
2021/01/19 08:03:50;;;;;;;2.28;2.03;;;8.10;80.30;;;;;;4971625;28;20116;-75
2021/01/19 08:06:16;;;;;;;2.28;1.50;;;8.10;80.30;;;;;;4921725;29;20377;-75
2021/01/19 08:08:42;;;;;;;2.90;1.83;;;8.10;80.30;;;;;;4936107;29;20492;-75
2021/01/19 08:11:18;;;;;;;2.20;1.77;;;8.10;80.30;;;;;;4945527;29;20464;-75
2021/01/19 08:13:46;;;;;;;2.38;1.80;;;8.10;80.40;;;;;;4942668;29;20039;-75
2021/01/19 08:16:26;;;;;;;2.88;2.17;;;8.10;80.20;;;;;;4937080;29;20114;-75
2021/01/19 08:19:14;;;;;;;2.33;1.98;;;8.10;80.40;;;;;;4947544;29;20074;-74
2021/01/19 08:21:52;;;;;;;2.10;1.80;;;8.10;80.30;;;;;;4952565;29;20486;-75
2021/01/19 08:24:23;;;;;;;1.98;1.77;;;8.10;80.30;;;;;;4945025;29;20042;-74
2021/01/19 08:26:50;;;;;;;2.90;1.70;;;8.10;80.30;;;;;;4945990;29;20027;-74
2021/01/19 08:29:20;;;;;;;3.00;1.90;;;8.10;80.30;;;;;;4954138;28;20417;-75
2021/01/19 08:31:54;;;;;;;1.92;1.77;;;8.10;80.30;;;;;;4911624;29;20040;-75
2021/01/19 08:34:21;;;;;;;2.78;1.80;;;8.10;80.40;;;;;;4921474;29;20118;-75
2021/01/19 08:36:48;;;;;;;1.80;1.70;;;8.10;80.30;;;;;;4936349;29;20057;-76
2021/01/19 08:39:19;;;;;;;2.13;1.90;;;8.10;80.30;;;;;;4947647;29;20023;-76
2021/01/19 08:41:50;;;;;;;2.00;1.80;;;8.20;80.40;;;;;;4920954;29;20126;-76
2021/01/19 08:44:16;;;;;;;1.98;1.70;;;8.20;80.40;;;;;;4948118;28;20030;-75
2021/01/19 08:46:43;;;;;;;2.22;1.70;;;8.20;80.30;;;;;;4946020;28;20027;-75
2021/01/19 08:49:11;;;;;;;1.80;1.65;;;8.20;80.30;;;;;;4940862;29;20031;-75
2021/01/19 08:51:37;;;;;;;2.42;1.70;;;8.20;80.30;;;;;;4915353;29;20095;-76
2021/01/19 08:54:10;;;;;;;2.05;1.75;;;8.20;80.40;;;;;;4937350;28;20046;-76
2021/01/19 08:56:44;;;;;;;2.42;1.50;;;8.20;80.40;;;;;;4954568;29;20066;-76
2021/01/19 08:59:14;;;;;;;1.70;1.60;;;8.20;80.40;;;;;;4940542;29;20062;-76
2021/01/19 09:01:55;;;;;;;1.70;1.60;;;8.20;80.30;;;;;;4950757;29;20032;-77
2021/01/19 09:04:25;;;;;;;1.95;1.60;;;8.20;80.40;;;;;;4929612;28;20058;-77
2021/01/19 09:06:52;;;;;;;2.67;1.50;;;8.30;80.40;;;;;;4938936;28;20035;-76
2021/01/19 09:09:22;;;;;;;2.17;1.52;;;8.20;80.30;;;;;;4949143;28;20487;-77
2021/01/19 09:11:51;;;;;;;1.67;1.58;;;8.20;80.30;;;;;;4971506;28;20121;-77
2021/01/19 09:14:23;;;;;;;2.22;1.60;;;8.20;80.30;;;;;;4959493;28;20077;-77
2021/01/19 09:16:49;;;;;;;1.73;1.63;;;8.30;80.30;;;;;;4959199;28;20038;-75
2021/01/19 09:19:15;;;;;;;1.60;1.50;;;8.30;80.30;;;;;;4943156;28;20367;-76
2021/01/19 09:21:40;;;;;;;1.65;1.50;;;8.30;80.40;;;;;;4943583;28;20121;-78
2021/01/19 09:24:13;;;;;;;1.85;1.70;;;8.30;80.30;;;;;;4945311;28;20027;-76
2021/01/19 09:26:56;;;;;;;1.98;1.70;;;8.30;80.40;;;;;;4960014;28;20023;-77
2021/01/19 09:29:29;;;;;;;1.90;1.35;;;8.30;80.30;;;;;;4946301;28;20076;-77
2021/01/19 09:32:03;;;;;;;1.92;1.73;;;8.40;80.40;;;;;;4958560;28;20517;-77
2021/01/19 09:34:30;;;;;;;2.85;1.60;;;8.30;80.30;;;;;;4943384;28;20046;-76
2021/01/19 09:36:57;;;;;;;2.20;1.73;;;8.40;80.30;;;;;;4941929;28;20424;-76
2021/01/19 09:39:27;;;;;;;2.50;2.28;;;8.40;80.30;;;;;;4943099;28;20027;-75
2021/01/19 09:41:54;;;;;;;1.77;1.58;;;8.40;80.40;;;;;;4942211;28;20050;-77
2021/01/19 09:44:21;;;;;;;1.55;1.40;;;8.40;80.30;;;;;;4942458;28;20039;-76
2021/01/19 09:46:52;;;;;;;1.80;1.70;;;8.40;80.30;;;;;;4919750;28;20126;-76
2021/01/19 09:49:21;;;;;;;1.67;1.58;;;8.40;80.30;;;;;;4975368;28;20467;-77
2021/01/19 09:51:46;;;;;;;1.60;1.50;;;8.40;80.30;;;;;;4958180;28;20054;-77
2021/01/19 09:54:12;;;;;;;1.75;1.60;;;8.50;80.30;;;;;;4942630;28;20488;-76
2021/01/19 09:56:38;;;;;;;1.80;1.70;;;8.50;80.30;;;;;;4937594;29;20106;-78
2021/01/19 09:59:05;;;;;;;1.63;1.52;;;8.50;80.30;;;;;;4957310;28;20054;-77
2021/01/19 10:01:31;;;;;;;1.65;1.40;;;8.50;80.30;;;;;;4958637;28;20039;-76
2021/01/19 10:03:58;;;;;;;1.70;1.52;;;8.50;80.30;;;;;;4957859;28;20027;-76
2021/01/19 10:06:26;;;;;;;1.88;1.70;;;8.50;80.30;;;;;;4960018;28;20054;-76
2021/01/19 10:08:56;;;;;;;1.55;1.45;;;8.50;80.30;;;;;;4957775;28;20085;-76
2021/01/19 10:11:35;;;;;;;1.60;1.50;;;8.50;80.30;;;;;;4948498;28;20061;-75
2021/01/19 10:14:11;;;;;;;1.70;1.60;;;8.60;80.40;;;;;;4957765;28;20472;-76
2021/01/19 10:16:44;;;;;;;2.20;1.70;;;8.60;80.30;;;;;;4974962;28;20027;-77
2021/01/19 10:19:24;;;;;;;1.50;1.40;;;8.60;80.30;;;;;;4974421;28;20089;-76
2021/01/19 10:21:52;;;;;;;1.80;1.70;;;8.60;80.30;;;;;;4974780;28;20129;-76
2021/01/19 10:24:18;;;;;;;1.67;1.58;;;8.60;80.30;;;;;;4975081;28;20030;-77
2021/01/19 10:26:57;;;;;;;1.65;1.50;;;8.60;80.30;;;;;;4942310;28;20174;-76
2021/01/19 10:29:23;;;;;;;1.65;1.55;;;8.60;80.40;;;;;;4942106;28;20027;-77
2021/01/19 10:31:59;;;;;;;1.70;1.60;;;8.70;80.30;;;;;;4926519;28;20030;-76
2021/01/19 10:34:27;;;;;;;2.08;1.60;;;8.70;80.30;;;;;;4941355;28;20076;-76
2021/01/19 10:36:55;;;;;;;2.00;1.52;;;8.70;80.20;;;;;;4941244;28;20018;-76
2021/01/19 10:39:21;;;;;;;1.50;1.40;;;8.70;80.30;;;;;;4957725;28;20031;-76
2021/01/19 10:41:49;;;;;;;1.60;1.50;;;8.70;80.20;;;;;;4957411;28;20035;-77
2021/01/19 10:44:16;;;;;;;1.75;1.50;;;8.80;80.30;;;;;;4941397;28;20479;-77
2021/01/19 10:46:43;;;;;;;1.50;1.40;;;8.80;80.30;;;;;;4941331;28;20035;-76
2021/01/19 10:49:15;;;;;;;1.90;1.70;;;8.80;80.30;;;;;;4957560;28;20031;-76
2021/01/19 10:51:42;;;;;;;1.50;1.40;;;8.80;80.30;;;;;;4941688;28;20037;-77
2021/01/19 10:54:09;;;;;;;1.70;1.60;;;8.80;80.20;;;;;;4940998;28;20033;-76
2021/01/19 10:56:37;;;;;;;2.38;1.70;;;8.80;80.20;;;;;;4941529;28;20435;-76
2021/01/19 10:59:03;;;;;;;1.58;1.48;;;8.80;80.20;;;;;;4956405;28;20033;-76
2021/01/19 11:01:31;;;;;;;1.75;1.50;;;8.90;80.30;;;;;;4941830;28;20066;-76
2021/01/19 11:03:57;;;;;;;1.58;1.40;;;8.90;80.30;;;;;;4941001;28;20030;-76
2021/01/19 11:06:35;;;;;;;1.70;1.60;;;8.90;80.20;;;;;;4947489;29;20058;-76
2021/01/19 11:09:04;;;;;;;1.70;1.60;;;8.90;80.30;;;;;;4970227;28;20030;-76
2021/01/19 11:11:31;;;;;;;1.70;1.60;;;8.90;80.20;;;;;;4941490;28;20113;-76
2021/01/19 11:14:02;;;;;;;1.60;1.50;;;9.00;80.20;;;;;;4939702;28;20114;-75
2021/01/19 11:16:29;;;;;;;1.70;1.60;;;9.00;80.20;;;;;;4940753;28;20031;-76
2021/01/19 11:19:05;;;;;;;1.80;1.70;;;9.00;80.20;;;;;;4955934;28;20086;-77
2021/01/19 11:21:31;;;;;;;1.90;1.70;;;9.00;80.20;;;;;;4957002;28;20039;-76
2021/01/19 11:23:58;;;;;;;1.77;1.60;;;9.00;80.20;;;;;;4956564;28;20058;-76
2021/01/19 11:26:24;;;;;;;1.77;1.67;;;9.10;80.20;;;;;;4941049;28;20089;-76
2021/01/19 11:28:50;;;;;;;1.60;1.50;;;9.10;80.80;;;;;;4961465;28;20419;-77
2021/01/19 11:31:35;;;;;;;1.60;1.50;;;9.10;80.20;;;;;;4942873;28;20124;-76
2021/01/19 11:34:03;;;;;;;;;;;9.10;80.30;;;;;;4962513;28;20471;-76
2021/01/19 11:36:30;;;;;;;1.85;1.63;;;9.10;80.00;;;;;;4973917;28;19914;-76
2021/01/19 11:38:57;;;;;;;1.70;1.60;;;9.20;79.90;;;;;;4943969;28;20031;-76
2021/01/19 11:41:25;;;;;;;1.77;1.63;;;9.20;80.00;;;;;;4956558;28;20077;-77
2021/01/19 11:43:52;;;;;;;1.50;1.40;;;9.20;80.20;;;;;;4944933;28;20062;-76
2021/01/19 11:46:26;;;;;;;2.03;1.75;;;9.20;80.10;;;;;;4940388;28;20466;-76
2021/01/19 11:48:53;;;;;;;1.40;1.30;;;9.20;80.10;;;;;;4956486;28;20023;-76
2021/01/19 11:51:28;;;;;;;2.47;1.80;;;9.30;80.20;;;;;;4940292;28;20039;-77
2021/01/19 11:53:56;;;;;;;1.60;1.48;;;9.30;80.20;;;;;;4940716;28;20054;-76
2021/01/19 11:56:35;;;;;;;1.73;1.60;;;9.30;80.10;;;;;;4956011;28;20506;-76
2021/01/19 11:59:06;;;;;;;1.50;1.40;;;9.40;80.20;;;;;;4956020;28;20081;-76
2021/01/19 12:01:32;;;;;;;1.70;1.60;;;9.40;80.10;;;;;;4956397;28;20059;-76
2021/01/19 12:03:58;;;;;;;1.70;1.60;;;9.40;80.10;;;;;;4956125;28;20388;-77
2021/01/19 12:06:24;;;;;;;1.50;1.40;;;9.40;80.10;;;;;;4973553;28;20054;-77
2021/01/19 12:08:51;;;;;;;1.77;1.67;;;9.50;80.10;;;;;;4956277;28;20121;-77
2021/01/19 12:11:18;;;;;;;1.70;1.60;;;9.50;80.10;;;;;;4955906;28;20139;-76
2021/01/19 12:13:45;;;;;;;1.95;1.75;;;9.50;80.10;;;;;;4955545;28;20105;-77
2021/01/19 12:16:11;;;;;;;1.65;1.55;;;9.60;80.20;;;;;;4936914;29;20031;-76
2021/01/19 12:18:39;;;;;;;2.15;1.77;;;9.50;80.10;;;;;;4941921;28;20486;-76
2021/01/19 12:21:09;;;;;;;1.65;1.55;;;9.60;80.10;;;;;;4940702;28;20037;-76
2021/01/19 12:23:35;;;;;;;1.88;1.67;;;9.60;80.10;;;;;;4946088;28;20027;-76
2021/01/19 12:26:01;;;;;;;1.70;1.60;;;9.60;80.10;;;;;;4937640;28;20097;-77
2021/01/19 12:28:27;;;;;;;1.60;1.50;;;9.70;80.10;;;;;;4954921;28;20122;-77
2021/01/19 12:30:54;;;;;;;2.67;1.60;;;9.70;80.10;;;;;;4923956;28;20118;-77
2021/01/19 12:33:21;;;;;;;1.90;1.70;;;9.70;80.10;;;;;;4955623;28;20430;-76
2021/01/19 12:35:48;;;;;;;1.70;1.60;;;9.70;80.10;;;;;;4973236;28;20031;-76
2021/01/19 12:38:14;;;;;;;2.35;1.70;;;9.80;80.10;;;;;;4939182;28;20058;-76
2021/01/19 12:40:40;;;;;;;2.00;1.80;;;9.80;80.10;;;;;;4940322;28;20062;-76
2021/01/19 12:43:06;;;;;;;2.03;1.80;;;9.80;80.10;;;;;;4955246;28;20483;-77
2021/01/19 12:45:32;;;;;;;2.30;2.10;;;9.90;80.10;;;;;;4939839;28;20078;-77
2021/01/19 12:47:58;;;;;;;2.03;1.83;;;9.90;80.10;;;;;;4939744;28;20035;-76
2021/01/19 12:50:23;;;;;;;1.80;1.70;;;9.90;80.10;;;;;;4955442;28;20031;-77
2021/01/19 12:52:49;;;;;;;1.88;1.77;;;10.00;80.10;;;;;;4973417;28;20058;-77
2021/01/19 12:55:15;;;;;;;2.08;1.75;;;10.00;80.10;;;;;;4923782;28;20035;-77
2021/01/19 12:57:41;;;;;;;1.98;1.83;;;10.00;80.00;;;;;;4936281;29;20035;-76
2021/01/19 13:00:07;;;;;;;4.05;2.78;;;10.00;80.00;;;;;;4950108;28;20046;-77
2021/01/19 13:02:33;;;;;;;2.08;1.75;;;10.00;80.00;;;;;;4973023;28;20065;-76
2021/01/19 13:05:02;;;;;;;3.05;2.20;;;10.10;80.10;;;;;;4955963;28;20077;-76
2021/01/19 13:07:29;;;;;;;1.90;1.80;;;10.10;80.00;;;;;;4972340;28;20035;-76
2021/01/19 13:09:55;;;;;;;2.45;2.10;;;10.10;80.00;;;;;;4973069;28;20107;-76